createdAt,value
2019-02-22T00:00:11.726Z,1023.63
2019-02-22T00:01:11.711Z,1023.66
2019-02-22T00:02:11.688Z,1023.62
2019-02-22T00:03:11.670Z,1023.62
2019-02-22T00:04:11.662Z,1023.64
2019-02-22T00:05:11.641Z,1023.67
2019-02-22T00:06:11.613Z,1023.66
2019-02-22T00:07:11.593Z,1023.66
2019-02-22T00:08:11.582Z,1023.65
2019-02-22T00:09:11.554Z,1023.67
2019-02-22T00:10:11.540Z,1023.67
2019-02-22T00:11:11.522Z,1023.68
2019-02-22T00:12:11.502Z,1023.69
2019-02-22T00:13:11.483Z,1023.63
2019-02-22T00:14:11.473Z,1023.66
2019-02-22T00:15:11.444Z,1023.66
2019-02-22T00:16:11.434Z,1023.70
2019-02-22T00:17:11.410Z,1023.71
2019-02-22T00:18:11.391Z,1023.69
2019-02-22T00:19:11.376Z,1023.70
2019-02-22T00:20:11.351Z,1023.73
2019-02-22T00:21:11.337Z,1023.69
2019-02-22T00:22:11.316Z,1023.67
2019-02-22T00:23:11.294Z,1023.69
2019-02-22T00:24:11.278Z,1023.66
2019-02-22T00:25:11.259Z,1023.68
2019-02-22T00:26:11.330Z,1023.62
2019-02-22T00:27:11.220Z,1023.64
2019-02-22T00:28:11.200Z,1023.63
2019-02-22T00:29:11.184Z,1023.64
2019-02-22T00:30:11.163Z,1023.64
2019-02-22T00:31:11.149Z,1023.68
2019-02-22T00:32:11.127Z,1023.64
2019-02-22T00:33:11.108Z,1023.70
2019-02-22T00:34:11.099Z,1023.71
2019-02-22T00:35:11.081Z,1023.74
2019-02-22T00:36:11.052Z,1023.79
2019-02-22T00:37:11.135Z,1023.78
2019-02-22T00:38:11.015Z,1023.77
2019-02-22T00:39:10.998Z,1023.82
2019-02-22T00:40:10.985Z,1023.83
2019-02-22T00:41:10.958Z,1023.82
2019-02-22T00:42:10.940Z,1023.84
2019-02-22T00:43:10.923Z,1023.82
2019-02-22T00:44:10.912Z,1023.83
2019-02-22T00:45:10.887Z,1023.90
2019-02-22T00:46:10.868Z,1023.90
2019-02-22T00:47:10.845Z,1023.94
2019-02-22T00:48:10.828Z,1023.97
2019-02-22T00:49:10.813Z,1024.01
2019-02-22T00:50:10.788Z,1024.00
2019-02-22T00:51:10.779Z,1023.98
2019-02-22T00:52:10.753Z,1023.98
2019-02-22T00:53:10.735Z,1023.95
2019-02-22T00:54:10.725Z,1023.93
2019-02-22T00:55:10.711Z,1023.95
2019-02-22T00:56:10.677Z,1023.96
2019-02-22T00:57:10.661Z,1023.95
2019-02-22T00:58:10.645Z,1023.97
2019-02-22T00:59:10.625Z,1023.97
2019-02-22T01:00:10.603Z,1024.00
2019-02-22T01:01:10.591Z,1024.02
2019-02-22T01:02:10.568Z,1024.04
2019-02-22T01:03:10.552Z,1024.04
2019-02-22T01:04:10.539Z,1024.07
2019-02-22T01:05:10.528Z,1024.06
2019-02-22T01:06:10.495Z,1024.07
2019-02-22T01:07:10.476Z,1024.05
2019-02-22T01:08:10.463Z,1024.09
2019-02-22T01:09:10.445Z,1024.10
2019-02-22T01:10:10.427Z,1024.09
2019-02-22T01:11:10.399Z,1024.13
2019-02-22T01:12:10.386Z,1024.14
2019-02-22T01:13:10.369Z,1024.17
2019-02-22T01:14:10.352Z,1024.17
2019-02-22T01:15:10.329Z,1024.17
2019-02-22T01:16:10.307Z,1024.16
2019-02-22T01:17:10.288Z,1024.27
2019-02-22T01:18:10.272Z,1024.28
2019-02-22T01:19:10.259Z,1024.24
2019-02-22T01:20:10.238Z,1024.25
2019-02-22T01:21:10.217Z,1024.26
2019-02-22T01:22:10.196Z,1024.26
2019-02-22T01:23:10.181Z,1024.28
2019-02-22T01:24:10.162Z,1024.28
2019-02-22T01:25:10.140Z,1024.36
2019-02-22T01:26:10.121Z,1024.37
2019-02-22T01:27:10.103Z,1024.36
2019-02-22T01:28:10.089Z,1024.39
2019-02-22T01:29:10.074Z,1024.42
2019-02-22T01:30:10.049Z,1024.40
2019-02-22T01:31:10.029Z,1024.41
2019-02-22T01:32:10.011Z,1024.40
2019-02-22T01:33:09.992Z,1024.44
2019-02-22T01:34:09.973Z,1024.44
2019-02-22T01:35:09.957Z,1024.45
2019-02-22T01:36:09.936Z,1024.44
2019-02-22T01:37:09.925Z,1024.48
2019-02-22T01:38:09.899Z,1024.44
2019-02-22T01:39:09.890Z,1024.46
2019-02-22T01:40:09.863Z,1024.50
2019-02-22T01:41:09.854Z,1024.51
2019-02-22T01:42:09.826Z,1024.56
2019-02-22T01:43:09.806Z,1024.52
2019-02-22T01:44:09.790Z,1024.52
2019-02-22T01:45:09.786Z,1024.55
2019-02-22T01:46:09.750Z,1024.56
2019-02-22T01:47:09.733Z,1024.56
2019-02-22T01:48:09.718Z,1024.56
2019-02-22T01:49:09.707Z,1024.61
2019-02-22T01:50:09.675Z,1024.55
2019-02-22T01:51:09.665Z,1024.55
2019-02-22T01:52:09.684Z,1024.52
2019-02-22T01:53:09.628Z,1024.51
2019-02-22T01:54:09.599Z,1024.52
2019-02-22T01:55:09.582Z,1024.55
2019-02-22T01:56:09.564Z,1024.58
2019-02-22T01:57:09.544Z,1024.58
2019-02-22T01:58:09.525Z,1024.56
2019-02-22T01:59:09.506Z,1024.62
2019-02-22T02:00:09.488Z,1024.59
2019-02-22T02:01:09.467Z,1024.62
2019-02-22T02:02:09.451Z,1024.58
2019-02-22T02:03:09.438Z,1024.58
2019-02-22T02:04:09.414Z,1024.58
2019-02-22T02:05:09.397Z,1024.59
2019-02-22T02:06:09.378Z,1024.61
2019-02-22T02:07:09.359Z,1024.59
2019-02-22T02:08:09.339Z,1024.56
2019-02-22T02:09:09.323Z,1024.56
2019-02-22T02:10:09.303Z,1024.55
2019-02-22T02:11:09.289Z,1024.57
2019-02-22T02:12:09.265Z,1024.61
2019-02-22T02:13:09.247Z,1024.61
2019-02-22T02:14:09.228Z,1024.62
2019-02-22T02:15:09.223Z,1024.61
2019-02-22T02:16:09.190Z,1024.59
2019-02-22T02:17:09.177Z,1024.65
2019-02-22T02:18:09.159Z,1024.65
2019-02-22T02:19:09.133Z,1024.66
2019-02-22T02:20:09.181Z,1024.68
2019-02-22T02:21:09.097Z,1024.64
2019-02-22T02:22:09.078Z,1024.63
2019-02-22T02:23:09.060Z,1024.66
2019-02-22T02:24:09.041Z,1024.71
2019-02-22T02:25:09.021Z,1024.70
2019-02-22T02:26:09.008Z,1024.70
2019-02-22T02:27:08.984Z,1024.70
2019-02-22T02:28:08.966Z,1024.68
2019-02-22T02:29:08.951Z,1024.68
2019-02-22T02:30:08.927Z,1024.68
2019-02-22T02:31:08.909Z,1024.68
2019-02-22T02:32:08.900Z,1024.65
2019-02-22T02:33:08.874Z,1024.67
2019-02-22T02:34:08.860Z,1024.67
2019-02-22T02:35:08.837Z,1024.64
2019-02-22T02:36:08.819Z,1024.66
2019-02-22T02:37:08.812Z,1024.69
2019-02-22T02:38:08.789Z,1024.68
2019-02-22T02:39:08.762Z,1024.68
2019-02-22T02:40:08.743Z,1024.66
2019-02-22T02:41:11.514Z,1024.69
2019-02-22T02:42:08.707Z,1024.70
2019-02-22T02:43:08.697Z,1024.73
2019-02-22T02:44:08.672Z,1024.70
2019-02-22T02:45:08.650Z,1024.71
2019-02-22T02:46:08.701Z,1024.66
2019-02-22T02:47:08.617Z,1024.71
2019-02-22T02:48:08.599Z,1024.72
2019-02-22T02:49:08.584Z,1024.73
2019-02-22T02:50:08.570Z,1024.71
2019-02-22T02:51:08.537Z,1024.71
2019-02-22T02:52:08.522Z,1024.69
2019-02-22T02:53:08.511Z,1024.72
2019-02-22T02:54:08.487Z,1024.74
2019-02-22T02:55:08.464Z,1024.78
2019-02-22T02:56:08.456Z,1024.80
2019-02-22T02:57:08.428Z,1024.87
2019-02-22T02:58:08.411Z,1024.87
2019-02-22T02:59:08.404Z,1024.91
2019-02-22T03:00:08.371Z,1024.97
2019-02-22T03:01:08.360Z,1024.98
2019-02-22T03:02:08.338Z,1024.96
2019-02-22T03:03:08.318Z,1024.97
2019-02-22T03:04:08.299Z,1024.98
2019-02-22T03:05:08.286Z,1025.01
2019-02-22T03:06:08.259Z,1025.02
2019-02-22T03:07:08.251Z,1024.99
2019-02-22T03:08:08.229Z,1025.03
2019-02-22T03:09:08.209Z,1025.06
2019-02-22T03:10:08.191Z,1025.08
2019-02-22T03:11:19.646Z,1025.09
2019-02-22T03:12:08.149Z,1025.13
2019-02-22T03:13:08.141Z,1025.10
2019-02-22T03:14:08.135Z,1025.15
2019-02-22T03:15:08.099Z,1025.16
2019-02-22T03:16:08.078Z,1025.20
2019-02-22T03:17:08.062Z,1025.22
2019-02-22T03:18:08.049Z,1025.24
2019-02-22T03:19:08.018Z,1025.24
2019-02-22T03:20:08.119Z,1025.28
2019-02-22T03:21:07.991Z,1025.28
2019-02-22T03:22:07.971Z,1025.30
2019-02-22T03:23:07.957Z,1025.27
2019-02-22T03:24:07.933Z,1025.31
2019-02-22T03:25:07.989Z,1025.36
2019-02-22T03:26:07.893Z,1025.36
2019-02-22T03:27:07.871Z,1025.38
2019-02-22T03:28:07.858Z,1025.39
2019-02-22T03:29:07.844Z,1025.40
2019-02-22T03:30:07.820Z,1025.39
2019-02-22T03:31:07.798Z,1025.37
2019-02-22T03:32:07.790Z,1025.39
2019-02-22T03:33:07.760Z,1025.36
2019-02-22T03:34:07.791Z,1025.38
2019-02-22T03:35:07.723Z,1025.37
2019-02-22T03:36:07.703Z,1025.36
2019-02-22T03:37:07.685Z,1025.35
2019-02-22T03:38:07.669Z,1025.34
2019-02-22T03:39:07.649Z,1025.40
2019-02-22T03:40:07.637Z,1025.41
2019-02-22T03:41:07.616Z,1025.41
2019-02-22T03:42:07.593Z,1025.45
2019-02-22T03:43:07.582Z,1025.43
2019-02-22T03:44:07.555Z,1025.47
2019-02-22T03:45:07.552Z,1025.48
2019-02-22T03:46:07.517Z,1025.46
2019-02-22T03:47:07.499Z,1025.49
2019-02-22T03:48:07.484Z,1025.55
2019-02-22T03:49:07.466Z,1025.57
2019-02-22T03:50:07.529Z,1025.54
2019-02-22T03:51:07.430Z,1025.57
2019-02-22T03:52:07.407Z,1025.58
2019-02-22T03:53:07.391Z,1025.58
2019-02-22T03:54:07.373Z,1025.57
2019-02-22T03:55:07.350Z,1025.63
2019-02-22T03:56:07.334Z,1025.62
2019-02-22T03:57:07.315Z,1025.64
2019-02-22T03:58:07.298Z,1025.63
2019-02-22T03:59:07.276Z,1025.62
2019-02-22T04:00:07.264Z,1025.66
2019-02-22T04:01:07.241Z,1025.69
2019-02-22T04:02:07.223Z,1025.68
2019-02-22T04:03:07.206Z,1025.71
2019-02-22T04:04:07.197Z,1025.68
2019-02-22T04:05:07.163Z,1025.70
2019-02-22T04:06:07.153Z,1025.71
2019-02-22T04:07:07.126Z,1025.72
2019-02-22T04:08:07.404Z,1025.70
2019-02-22T04:09:07.092Z,1025.69
2019-02-22T04:10:07.077Z,1025.70
2019-02-22T04:11:07.064Z,1025.69
2019-02-22T04:12:07.039Z,1025.64
2019-02-22T04:13:07.015Z,1025.67
2019-02-22T04:14:06.995Z,1025.63
2019-02-22T04:15:06.978Z,1025.65
2019-02-22T04:16:06.970Z,1025.66
2019-02-22T04:17:06.946Z,1025.70
2019-02-22T04:18:06.922Z,1025.69
2019-02-22T04:19:06.904Z,1025.71
2019-02-22T04:20:06.885Z,1025.71
2019-02-22T04:21:06.868Z,1025.71
2019-02-22T04:22:06.848Z,1025.73
2019-02-22T04:23:06.828Z,1025.70
2019-02-22T04:24:06.824Z,1025.71
2019-02-22T04:25:06.796Z,1025.73
2019-02-22T04:26:06.772Z,1025.74
2019-02-22T04:27:06.755Z,1025.73
2019-02-22T04:28:06.735Z,1025.74
2019-02-22T04:29:06.718Z,1025.74
2019-02-22T04:30:06.697Z,1025.75
2019-02-22T04:31:06.684Z,1025.75
2019-02-22T04:32:06.661Z,1025.74
2019-02-22T04:33:06.642Z,1025.76
2019-02-22T04:34:06.631Z,1025.76
2019-02-22T04:35:06.609Z,1025.76
2019-02-22T04:36:06.586Z,1025.75
2019-02-22T04:37:06.567Z,1025.75
2019-02-22T04:38:06.549Z,1025.80
2019-02-22T04:39:06.531Z,1025.83
2019-02-22T04:40:06.515Z,1025.84
2019-02-22T04:41:06.495Z,1025.87
2019-02-22T04:42:06.474Z,1025.87
2019-02-22T04:43:06.458Z,1025.84
2019-02-22T04:44:06.442Z,1025.81
2019-02-22T04:45:06.423Z,1025.87
2019-02-22T04:46:06.403Z,1025.86
2019-02-22T04:47:06.384Z,1025.89
2019-02-22T04:48:06.369Z,1025.91
2019-02-22T04:49:06.359Z,1025.97
2019-02-22T04:50:06.327Z,1025.98
2019-02-22T04:51:06.309Z,1025.98
2019-02-22T04:52:06.291Z,1025.99
2019-02-22T04:53:06.276Z,1026.00
2019-02-22T04:54:06.250Z,1025.97
2019-02-22T04:55:06.231Z,1025.96
2019-02-22T04:56:06.221Z,1026.00
2019-02-22T04:57:06.195Z,1025.98
2019-02-22T04:58:06.176Z,1025.98
2019-02-22T04:59:06.159Z,1025.96
2019-02-22T05:00:06.142Z,1025.94
2019-02-22T05:01:06.123Z,1025.94
2019-02-22T05:02:06.118Z,1025.92
2019-02-22T05:03:06.088Z,1025.98
2019-02-22T05:04:06.065Z,1025.96
2019-02-22T05:05:06.048Z,1025.94
2019-02-22T05:06:06.026Z,1025.97
2019-02-22T05:07:06.009Z,1025.94
2019-02-22T05:08:05.997Z,1025.94
2019-02-22T05:09:05.979Z,1025.95
2019-02-22T05:10:05.953Z,1025.95
2019-02-22T05:11:05.937Z,1025.94
2019-02-22T05:12:10.843Z,1025.93
2019-02-22T05:13:05.898Z,1025.89
2019-02-22T05:14:05.882Z,1025.92
2019-02-22T05:15:12.572Z,1025.91
2019-02-22T05:16:05.886Z,1025.91
2019-02-22T05:17:05.824Z,1025.92
2019-02-22T05:18:05.806Z,1025.95
2019-02-22T05:19:05.793Z,1025.96
2019-02-22T05:20:05.769Z,1026.01
2019-02-22T05:21:05.752Z,1026.03
2019-02-22T05:22:05.734Z,1026.01
2019-02-22T05:23:07.571Z,1026.03
2019-02-22T05:24:05.697Z,1026.04
2019-02-22T05:25:05.680Z,1026.06
2019-02-22T05:26:05.655Z,1026.08
2019-02-22T05:27:05.638Z,1026.12
2019-02-22T05:28:05.626Z,1026.08
2019-02-22T05:29:05.606Z,1026.10
2019-02-22T05:30:05.583Z,1026.10
2019-02-22T05:31:05.562Z,1026.15
2019-02-22T05:32:05.547Z,1026.16
2019-02-22T05:33:05.525Z,1026.12
2019-02-22T05:34:05.508Z,1026.16
2019-02-22T05:35:05.493Z,1026.17
2019-02-22T05:36:05.470Z,1026.18
2019-02-22T05:37:05.453Z,1026.22
2019-02-22T05:38:05.432Z,1026.23
2019-02-22T05:39:18.012Z,1026.24
2019-02-22T05:40:05.397Z,1026.24
2019-02-22T05:41:05.392Z,1026.24
2019-02-22T05:42:05.360Z,1026.30
2019-02-22T05:43:05.344Z,1026.28
2019-02-22T05:44:05.328Z,1026.30
2019-02-22T05:45:05.304Z,1026.32
2019-02-22T05:46:05.288Z,1026.35
2019-02-22T05:47:05.265Z,1026.31
2019-02-22T05:48:05.249Z,1026.32
2019-02-22T05:49:05.231Z,1026.36
2019-02-22T05:50:05.220Z,1026.36
2019-02-22T05:51:05.194Z,1026.37
2019-02-22T05:52:05.180Z,1026.43
2019-02-22T05:53:05.157Z,1026.45
2019-02-22T05:54:05.139Z,1026.49
2019-02-22T05:55:05.132Z,1026.50
2019-02-22T05:56:05.104Z,1026.53
2019-02-22T05:57:05.091Z,1026.50
2019-02-22T05:58:05.070Z,1026.47
2019-02-22T05:59:05.057Z,1026.53
2019-02-22T06:00:05.033Z,1026.55
2019-02-22T06:01:06.871Z,1026.58
2019-02-22T06:02:04.991Z,1026.56
2019-02-22T06:03:04.976Z,1026.58
2019-02-22T06:04:04.955Z,1026.59
2019-02-22T06:05:04.932Z,1026.61
2019-02-22T06:06:04.919Z,1026.66
2019-02-22T06:07:04.906Z,1026.67
2019-02-22T06:08:04.888Z,1026.68
2019-02-22T06:09:04.861Z,1026.71
2019-02-22T06:10:04.843Z,1026.71
2019-02-22T06:11:04.820Z,1026.73
2019-02-22T06:12:04.802Z,1026.74
2019-02-22T06:13:04.839Z,1026.74
2019-02-22T06:14:04.763Z,1026.77
2019-02-22T06:15:04.742Z,1026.80
2019-02-22T06:16:04.729Z,1026.80
2019-02-22T06:17:14.216Z,1026.81
2019-02-22T06:18:04.689Z,1026.81
2019-02-22T06:19:04.670Z,1026.88
2019-02-22T06:20:04.661Z,1026.83
2019-02-22T06:21:04.634Z,1026.85
2019-02-22T06:22:04.618Z,1026.84
2019-02-22T06:23:04.593Z,1026.82
2019-02-22T06:24:04.573Z,1026.83
2019-02-22T06:25:04.577Z,1026.83
2019-02-22T06:26:04.548Z,1026.84
2019-02-22T06:27:04.516Z,1026.82
2019-02-22T06:28:04.498Z,1026.86
2019-02-22T06:29:04.479Z,1026.88
2019-02-22T06:30:04.473Z,1026.94
2019-02-22T06:31:04.450Z,1026.96
2019-02-22T06:32:04.425Z,1026.95
2019-02-22T06:33:04.412Z,1026.99
2019-02-22T06:34:04.384Z,1027.01
2019-02-22T06:35:04.363Z,1027.02
2019-02-22T06:36:04.356Z,1027.03
2019-02-22T06:37:04.327Z,1027.08
2019-02-22T06:38:04.309Z,1027.06
2019-02-22T06:39:04.292Z,1027.09
2019-02-22T06:40:04.274Z,1027.06
2019-02-22T06:41:04.256Z,1027.11
2019-02-22T06:42:04.239Z,1027.12
2019-02-22T06:43:04.223Z,1027.11
2019-02-22T06:44:04.195Z,1027.15
2019-02-22T06:45:04.178Z,1027.14
2019-02-22T06:46:04.160Z,1027.11
2019-02-22T06:47:04.139Z,1027.12
2019-02-22T06:48:04.122Z,1027.14
2019-02-22T06:49:04.105Z,1027.17
2019-02-22T06:50:04.084Z,1027.20
2019-02-22T06:51:04.066Z,1027.17
2019-02-22T06:52:04.046Z,1027.18
2019-02-22T06:53:04.029Z,1027.17
2019-02-22T06:54:04.010Z,1027.20
2019-02-22T06:55:03.993Z,1027.22
2019-02-22T06:56:03.976Z,1027.20
2019-02-22T06:57:03.956Z,1027.26
2019-02-22T06:58:03.934Z,1027.26
2019-02-22T06:59:03.915Z,1027.24
2019-02-22T07:00:03.926Z,1027.24
2019-02-22T07:01:03.879Z,1027.23
2019-02-22T07:02:03.877Z,1027.23
2019-02-22T07:03:03.841Z,1027.20
2019-02-22T07:04:03.823Z,1027.18
2019-02-22T07:05:03.803Z,1027.18
2019-02-22T07:06:05.702Z,1027.19
2019-02-22T07:07:03.765Z,1027.21
2019-02-22T07:08:03.754Z,1027.23
2019-02-22T07:09:03.734Z,1027.25
2019-02-22T07:10:03.710Z,1027.28
2019-02-22T07:11:03.691Z,1027.26
2019-02-22T07:12:03.675Z,1027.30
2019-02-22T07:13:03.682Z,1027.30
2019-02-22T07:14:03.682Z,1027.33
2019-02-22T07:15:03.621Z,1027.35
2019-02-22T07:16:03.598Z,1027.36
2019-02-22T07:17:03.643Z,1027.33
2019-02-22T07:18:03.559Z,1027.40
2019-02-22T07:19:03.547Z,1027.41
2019-02-22T07:20:03.527Z,1027.45
2019-02-22T07:21:03.507Z,1027.45
2019-02-22T07:22:03.491Z,1027.45
2019-02-22T07:23:03.467Z,1027.51
2019-02-22T07:24:03.454Z,1027.50
2019-02-22T07:25:03.434Z,1027.49
2019-02-22T07:26:03.413Z,1027.53
2019-02-22T07:27:03.400Z,1027.53
2019-02-22T07:28:03.374Z,1027.55
2019-02-22T07:29:03.367Z,1027.60
2019-02-22T07:30:03.338Z,1027.59
2019-02-22T07:31:03.319Z,1027.62
2019-02-22T07:32:06.202Z,1027.64
2019-02-22T07:33:03.294Z,1027.69
2019-02-22T07:34:03.273Z,1027.67
2019-02-22T07:35:03.253Z,1027.70
2019-02-22T07:36:03.235Z,1027.76
2019-02-22T07:37:03.228Z,1027.78
2019-02-22T07:38:03.195Z,1027.78
2019-02-22T07:39:03.180Z,1027.78
2019-02-22T07:40:03.152Z,1027.82
2019-02-22T07:41:03.135Z,1027.81
2019-02-22T07:42:03.120Z,1027.83
2019-02-22T07:43:08.064Z,1027.88
2019-02-22T07:44:03.081Z,1027.87
2019-02-22T07:45:03.061Z,1027.87
2019-02-22T07:46:03.043Z,1027.91
2019-02-22T07:47:03.022Z,1027.92
2019-02-22T07:48:03.008Z,1027.90
2019-02-22T07:49:02.994Z,1027.91
2019-02-22T07:50:02.975Z,1027.93
2019-02-22T07:51:02.964Z,1027.96
2019-02-22T07:52:02.929Z,1027.95
2019-02-22T07:53:02.914Z,1027.92
2019-02-22T07:54:02.897Z,1027.98
2019-02-22T07:55:02.881Z,1028.00
2019-02-22T07:56:02.861Z,1028.03
2019-02-22T07:57:02.838Z,1028.05
2019-02-22T07:58:02.829Z,1028.06
2019-02-22T07:59:03.159Z,1028.10
2019-02-22T08:00:02.782Z,1028.13
2019-02-22T08:01:02.773Z,1028.12
2019-02-22T08:02:02.749Z,1028.12
2019-02-22T08:03:02.735Z,1028.13
2019-02-22T08:04:02.714Z,1028.18
2019-02-22T08:05:02.692Z,1028.16
2019-02-22T08:06:02.673Z,1028.19
2019-02-22T08:07:02.657Z,1028.20
2019-02-22T08:08:02.640Z,1028.25
2019-02-22T08:09:02.620Z,1028.26
2019-02-22T08:10:02.602Z,1028.29
2019-02-22T08:11:02.583Z,1028.37
2019-02-22T08:12:02.564Z,1028.33
2019-02-22T08:13:02.544Z,1028.35
2019-02-22T08:14:02.529Z,1028.38
2019-02-22T08:15:02.506Z,1028.39
2019-02-22T08:16:02.489Z,1028.41
2019-02-22T08:17:02.472Z,1028.39
2019-02-22T08:18:02.450Z,1028.40
2019-02-22T08:19:02.443Z,1028.42
2019-02-22T08:20:02.418Z,1028.45
2019-02-22T08:21:02.401Z,1028.44
2019-02-22T08:22:03.560Z,1028.42
2019-02-22T08:23:02.361Z,1028.43
2019-02-22T08:24:02.341Z,1028.38
2019-02-22T08:25:02.325Z,1028.39
2019-02-22T08:26:02.309Z,1028.41
2019-02-22T08:27:02.285Z,1028.40
2019-02-22T08:28:02.271Z,1028.40
2019-02-22T08:29:02.257Z,1028.40
2019-02-22T08:30:02.237Z,1028.41
2019-02-22T08:31:02.214Z,1028.41
2019-02-22T08:32:02.197Z,1028.44
2019-02-22T08:33:02.173Z,1028.47
2019-02-22T08:34:02.160Z,1028.48
2019-02-22T08:35:02.138Z,1028.47
2019-02-22T08:36:02.123Z,1028.52
2019-02-22T08:37:02.106Z,1028.52
2019-02-22T08:38:02.090Z,1028.58
2019-02-22T08:39:02.067Z,1028.58
2019-02-22T08:40:02.652Z,1028.57
2019-02-22T08:41:02.034Z,1028.54
2019-02-22T08:42:02.008Z,1028.56
2019-02-22T08:43:01.992Z,1028.57
2019-02-22T08:44:01.982Z,1028.62
2019-02-22T08:45:01.958Z,1028.65
2019-02-22T08:46:01.943Z,1028.70
2019-02-22T08:47:02.040Z,1028.65
2019-02-22T08:48:01.909Z,1028.66
2019-02-22T08:49:01.881Z,1028.70
2019-02-22T08:50:01.865Z,1028.68
2019-02-22T08:51:01.906Z,1028.68
2019-02-22T08:52:01.830Z,1028.67
2019-02-22T08:53:01.815Z,1028.69
2019-02-22T08:54:01.798Z,1028.70
2019-02-22T08:55:01.782Z,1028.72
2019-02-22T08:56:01.765Z,1028.71
2019-02-22T08:57:01.747Z,1028.77
2019-02-22T08:58:01.727Z,1028.79
2019-02-22T08:59:01.732Z,1028.77
2019-02-22T09:00:01.687Z,1028.82
2019-02-22T09:01:01.671Z,1028.82
2019-02-22T09:02:01.658Z,1028.87
2019-02-22T09:03:01.634Z,1028.90
2019-02-22T09:04:01.617Z,1028.95
2019-02-22T09:05:01.605Z,1028.99
2019-02-22T09:06:01.586Z,1029.00
2019-02-22T09:07:01.567Z,1028.99
2019-02-22T09:08:01.558Z,1029.02
2019-02-22T09:09:01.537Z,1029.03
2019-02-22T09:10:01.511Z,1029.03
2019-02-22T09:11:01.496Z,1029.06
2019-02-22T09:12:01.481Z,1029.06
2019-02-22T09:13:01.462Z,1029.09
2019-02-22T09:14:01.441Z,1029.09
2019-02-22T09:15:01.432Z,1029.10
2019-02-22T09:16:01.409Z,1029.13
2019-02-22T09:17:01.392Z,1029.18
2019-02-22T09:18:01.372Z,1029.23
2019-02-22T09:19:01.355Z,1029.21
2019-02-22T09:20:01.351Z,1029.23
2019-02-22T09:21:01.324Z,1029.27
2019-02-22T09:22:01.305Z,1029.25
2019-02-22T09:23:01.289Z,1029.29
2019-02-22T09:24:01.270Z,1029.33
2019-02-22T09:25:01.256Z,1029.33
2019-02-22T09:26:01.247Z,1029.39
2019-02-22T09:27:01.227Z,1029.40
2019-02-22T09:28:01.202Z,1029.39
2019-02-22T09:29:01.184Z,1029.44
2019-02-22T09:30:01.172Z,1029.44
2019-02-22T09:31:01.157Z,1029.50
2019-02-22T09:32:01.137Z,1029.47
2019-02-22T09:33:01.115Z,1029.47
2019-02-22T09:34:01.105Z,1029.41
2019-02-22T09:35:01.081Z,1029.50
2019-02-22T09:36:01.062Z,1029.51
2019-02-22T09:37:01.047Z,1029.55
2019-02-22T09:38:01.033Z,1029.54
2019-02-22T09:39:01.042Z,1029.52
2019-02-22T09:40:00.993Z,1029.53
2019-02-22T09:41:00.982Z,1029.55
2019-02-22T09:42:00.959Z,1029.52
2019-02-22T09:43:00.942Z,1029.53
2019-02-22T09:44:00.930Z,1029.55
2019-02-22T09:45:00.909Z,1029.56
2019-02-22T09:46:00.894Z,1029.55
2019-02-22T09:47:00.876Z,1029.61
2019-02-22T09:48:00.856Z,1029.64
2019-02-22T09:49:00.839Z,1029.65
2019-02-22T09:50:00.819Z,1029.64
2019-02-22T09:51:00.806Z,1029.65
2019-02-22T09:52:00.793Z,1029.66
2019-02-22T09:53:00.773Z,1029.69
2019-02-22T09:54:00.760Z,1029.69
2019-02-22T09:55:00.737Z,1029.69
2019-02-22T09:56:00.716Z,1029.72
2019-02-22T09:57:02.008Z,1029.68
2019-02-22T09:58:00.684Z,1029.71
2019-02-22T09:59:00.667Z,1029.75
2019-02-22T10:00:00.707Z,1029.77
2019-02-22T10:01:00.626Z,1029.76
2019-02-22T10:02:00.608Z,1029.75
2019-02-22T10:03:00.593Z,1029.74
2019-02-22T10:04:00.577Z,1029.77
2019-02-22T10:05:00.560Z,1029.73
2019-02-22T10:06:00.537Z,1029.76
2019-02-22T10:07:00.535Z,1029.69
2019-02-22T10:08:00.508Z,1029.71
2019-02-22T10:09:00.496Z,1029.70
2019-02-22T10:10:00.471Z,1029.67
2019-02-22T10:11:00.465Z,1029.66
2019-02-22T10:12:00.433Z,1029.68
2019-02-22T10:13:00.421Z,1029.65
2019-02-22T10:14:06.600Z,1029.65
2019-02-22T10:15:00.388Z,1029.68
2019-02-22T10:16:00.382Z,1029.64
2019-02-22T10:17:00.352Z,1029.70
2019-02-22T10:18:00.343Z,1029.70
2019-02-22T10:19:00.315Z,1029.68
2019-02-22T10:20:01.623Z,1029.69
2019-02-22T10:21:00.283Z,1029.71
2019-02-22T10:22:00.268Z,1029.69
2019-02-22T10:23:00.249Z,1029.65
2019-02-22T10:24:00.232Z,1029.66
2019-02-22T10:25:00.359Z,1029.62
2019-02-22T10:26:00.212Z,1029.61
2019-02-22T10:27:00.180Z,1029.61
2019-02-22T10:28:00.163Z,1029.62
2019-02-22T10:29:00.148Z,1029.64
2019-02-22T10:30:00.129Z,1029.63
2019-02-22T10:31:00.115Z,1029.66
2019-02-22T10:32:00.108Z,1029.68
2019-02-22T10:33:00.081Z,1029.74
2019-02-22T10:34:00.069Z,1029.78
2019-02-22T10:35:00.054Z,1029.79
2019-02-22T10:36:00.032Z,1029.81
2019-02-22T10:37:00.023Z,1029.83
2019-02-22T10:37:59.994Z,1029.80
2019-02-22T10:38:59.976Z,1029.86
2019-02-22T10:39:59.972Z,1029.86
2019-02-22T10:40:59.948Z,1029.99
2019-02-22T10:41:59.933Z,1030.03
2019-02-22T10:42:59.913Z,1029.99
2019-02-22T10:43:59.897Z,1029.94
2019-02-22T10:44:59.884Z,1029.95
2019-02-22T10:45:59.868Z,1029.96
2019-02-22T10:46:59.855Z,1029.92
2019-02-22T10:47:59.840Z,1029.95
2019-02-22T10:48:59.826Z,1029.92
2019-02-22T10:49:59.809Z,1029.92
2019-02-22T10:50:59.792Z,1029.93
2019-02-22T10:51:59.804Z,1029.94
2019-02-22T10:53:02.506Z,1029.93
2019-02-22T10:53:59.748Z,1029.96
2019-02-22T10:54:59.737Z,1029.95
2019-02-22T10:55:59.721Z,1029.97
2019-02-22T10:56:59.703Z,1029.98
2019-02-22T10:57:59.687Z,1029.97
2019-02-22T10:58:59.674Z,1029.98
2019-02-22T10:59:59.658Z,1029.98
2019-02-22T11:00:59.645Z,1029.99
2019-02-22T11:01:59.627Z,1029.97
2019-02-22T11:02:59.619Z,1030.02
2019-02-22T11:03:59.601Z,1029.97
2019-02-22T11:04:59.589Z,1029.99
2019-02-22T11:05:59.575Z,1029.98
2019-02-22T11:06:59.555Z,1030.02
2019-02-22T11:07:59.552Z,1030.04
2019-02-22T11:08:59.535Z,1030.01
2019-02-22T11:09:59.508Z,1030.05
2019-02-22T11:10:59.496Z,1030.02
2019-02-22T11:11:59.484Z,1029.99
2019-02-22T11:12:59.466Z,1030.00
2019-02-22T11:13:59.449Z,1029.99
2019-02-22T11:14:59.436Z,1030.00
2019-02-22T11:15:59.425Z,1029.99
2019-02-22T11:16:59.408Z,1030.02
2019-02-22T11:17:59.391Z,1030.03
2019-02-22T11:18:59.382Z,1030.04
2019-02-22T11:19:59.364Z,1030.01
2019-02-22T11:20:59.350Z,1030.02
2019-02-22T11:21:59.331Z,1030.02
2019-02-22T11:22:59.320Z,1030.02
2019-02-22T11:23:59.298Z,1030.05
2019-02-22T11:24:59.289Z,1030.06
2019-02-22T11:25:59.269Z,1030.10
2019-02-22T11:26:59.256Z,1030.15
2019-02-22T11:27:59.240Z,1030.15
2019-02-22T11:28:59.233Z,1030.15
2019-02-22T11:29:59.214Z,1030.14
2019-02-22T11:30:59.195Z,1030.18
2019-02-22T11:31:59.194Z,1030.19
2019-02-22T11:32:59.170Z,1030.19
2019-02-22T11:33:59.147Z,1030.20
2019-02-22T11:34:59.132Z,1030.18
2019-02-22T11:35:59.136Z,1030.21
2019-02-22T11:36:59.103Z,1030.22
2019-02-22T11:37:59.085Z,1030.19
2019-02-22T11:38:59.070Z,1030.18
2019-02-22T11:39:59.059Z,1030.21
2019-02-22T11:40:59.042Z,1030.25
2019-02-22T11:41:59.031Z,1030.18
2019-02-22T11:42:59.015Z,1030.21
2019-02-22T11:43:58.992Z,1030.21
2019-02-22T11:44:58.985Z,1030.20
2019-02-22T11:45:58.968Z,1030.19
2019-02-22T11:46:59.022Z,1030.23
2019-02-22T11:48:08.756Z,1030.23
2019-02-22T11:48:58.924Z,1030.32
2019-02-22T11:49:58.915Z,1030.23
2019-02-22T11:50:58.893Z,1030.32
2019-02-22T11:51:58.881Z,1030.34
2019-02-22T11:52:58.860Z,1030.27
2019-02-22T11:53:58.845Z,1030.28
2019-02-22T11:54:58.830Z,1030.29
2019-02-22T11:55:58.816Z,1030.24
2019-02-22T11:56:58.803Z,1030.19
2019-02-22T11:57:58.792Z,1030.19
2019-02-22T11:58:58.776Z,1030.24
2019-02-22T11:59:58.761Z,1030.24
2019-02-22T12:00:58.745Z,1030.22
2019-02-22T12:01:58.740Z,1030.20
2019-02-22T12:02:58.715Z,1030.20
2019-02-22T12:03:58.700Z,1030.21
2019-02-22T12:04:58.686Z,1030.18